sensor_id;sensor_type;location;lat;lon;timestamp;temperature;humidity
42617;DHT22;28250;52.320;0.360;2022-08-05T00:01:10;16.30;99.90
42617;DHT22;28250;52.320;0.360;2022-08-05T00:03:38;16.30;99.90
42617;DHT22;28250;52.320;0.360;2022-08-05T00:06:04;16.30;99.90
42617;DHT22;28250;52.320;0.360;2022-08-05T00:08:31;16.20;99.90
42617;DHT22;28250;52.320;0.360;2022-08-05T00:10:58;16.20;99.90
42617;DHT22;28250;52.320;0.360;2022-08-05T00:13:25;16.20;99.90
42617;DHT22;28250;52.320;0.360;2022-08-05T00:15:51;16.30;99.90
42617;DHT22;28250;52.320;0.360;2022-08-05T00:18:18;16.30;99.90
42617;DHT22;28250;52.320;0.360;2022-08-05T00:20:44;16.20;99.90
42617;DHT22;28250;52.320;0.360;2022-08-05T00:23:11;16.20;99.90
42617;DHT22;28250;52.320;0.360;2022-08-05T00:25:37;16.20;99.90
42617;DHT22;28250;52.320;0.360;2022-08-05T00:28:04;16.20;99.90
42617;DHT22;28250;52.320;0.360;2022-08-05T00:30:30;16.10;99.90
42617;DHT22;28250;52.320;0.360;2022-08-05T00:32:57;16.20;99.90
42617;DHT22;28250;52.320;0.360;2022-08-05T00:35:23;16.10;99.90
42617;DHT22;28250;52.320;0.360;2022-08-05T00:37:49;16.00;99.90
42617;DHT22;28250;52.320;0.360;2022-08-05T00:40:16;16.00;99.90
42617;DHT22;28250;52.320;0.360;2022-08-05T00:43:03;15.90;99.90
42617;DHT22;28250;52.320;0.360;2022-08-05T00:45:30;15.90;99.90
42617;DHT22;28250;52.320;0.360;2022-08-05T00:47:56;15.90;99.90
42617;DHT22;28250;52.320;0.360;2022-08-05T00:50:23;15.90;99.90
42617;DHT22;28250;52.320;0.360;2022-08-05T00:52:49;15.80;99.90
42617;DHT22;28250;52.320;0.360;2022-08-05T00:55:16;15.80;99.90
42617;DHT22;28250;52.320;0.360;2022-08-05T00:57:42;15.70;99.90
42617;DHT22;28250;52.320;0.360;2022-08-05T01:00:09;15.70;99.90
42617;DHT22;28250;52.320;0.360;2022-08-05T01:02:36;15.70;99.90
42617;DHT22;28250;52.320;0.360;2022-08-05T01:05:03;15.70;99.90
42617;DHT22;28250;52.320;0.360;2022-08-05T01:07:30;15.60;99.90
42617;DHT22;28250;52.320;0.360;2022-08-05T01:09:56;15.60;99.90
42617;DHT22;28250;52.320;0.360;2022-08-05T01:12:23;15.50;99.90
42617;DHT22;28250;52.320;0.360;2022-08-05T01:14:55;15.50;99.90
42617;DHT22;28250;52.320;0.360;2022-08-05T01:17:26;15.40;99.90
42617;DHT22;28250;52.320;0.360;2022-08-05T01:20:02;15.40;99.90
42617;DHT22;28250;52.320;0.360;2022-08-05T01:22:39;15.40;99.90
42617;DHT22;28250;52.320;0.360;2022-08-05T01:25:23;15.30;99.90
42617;DHT22;28250;52.320;0.360;2022-08-05T01:30:33;15.20;99.90
42617;DHT22;28250;52.320;0.360;2022-08-05T01:33:04;15.20;99.90
42617;DHT22;28250;52.320;0.360;2022-08-05T01:35:33;15.10;99.90
42617;DHT22;28250;52.320;0.360;2022-08-05T01:38:02;15.20;99.90
42617;DHT22;28250;52.320;0.360;2022-08-05T01:40:29;15.10;99.90
42617;DHT22;28250;52.320;0.360;2022-08-05T01:42:57;15.10;99.90
42617;DHT22;28250;52.320;0.360;2022-08-05T01:45:27;15.00;99.90
42617;DHT22;28250;52.320;0.360;2022-08-05T01:47:55;15.00;99.90
42617;DHT22;28250;52.320;0.360;2022-08-05T01:50:26;14.90;99.90
42617;DHT22;28250;52.320;0.360;2022-08-05T01:52:57;15.00;99.90
42617;DHT22;28250;52.320;0.360;2022-08-05T01:55:26;14.90;99.90
42617;DHT22;28250;52.320;0.360;2022-08-05T01:57:53;14.90;99.90
42617;DHT22;28250;52.320;0.360;2022-08-05T02:00:21;14.80;99.90
42617;DHT22;28250;52.320;0.360;2022-08-05T02:02:51;14.80;99.90
42617;DHT22;28250;52.320;0.360;2022-08-05T02:05:22;14.70;99.90
42617;DHT22;28250;52.320;0.360;2022-08-05T02:07:52;14.70;99.90
42617;DHT22;28250;52.320;0.360;2022-08-05T02:10:19;14.70;99.90
42617;DHT22;28250;52.320;0.360;2022-08-05T02:12:48;14.70;99.90
42617;DHT22;28250;52.320;0.360;2022-08-05T02:15:24;14.60;99.90
42617;DHT22;28250;52.320;0.360;2022-08-05T02:20:46;14.50;99.90
42617;DHT22;28250;52.320;0.360;2022-08-05T02:23:14;14.60;99.90
42617;DHT22;28250;52.320;0.360;2022-08-05T02:25:43;14.40;99.90
42617;DHT22;28250;52.320;0.360;2022-08-05T02:28:11;14.40;99.90
42617;DHT22;28250;52.320;0.360;2022-08-05T02:30:42;14.30;99.90
42617;DHT22;28250;52.320;0.360;2022-08-05T02:33:10;14.30;99.90
42617;DHT22;28250;52.320;0.360;2022-08-05T02:35:40;14.20;99.90
42617;DHT22;28250;52.320;0.360;2022-08-05T02:38:08;14.20;99.90
42617;DHT22;28250;52.320;0.360;2022-08-05T02:40:36;14.10;99.90
42617;DHT22;28250;52.320;0.360;2022-08-05T02:43:04;14.10;99.90
42617;DHT22;28250;52.320;0.360;2022-08-05T02:45:31;14.10;99.90
42617;DHT22;28250;52.320;0.360;2022-08-05T02:47:58;14.10;99.90
42617;DHT22;28250;52.320;0.360;2022-08-05T02:50:25;14.10;99.90
42617;DHT22;28250;52.320;0.360;2022-08-05T02:52:52;14.00;99.90
42617;DHT22;28250;52.320;0.360;2022-08-05T02:55:19;13.90;99.90
42617;DHT22;28250;52.320;0.360;2022-08-05T02:57:46;14.00;99.90
42617;DHT22;28250;52.320;0.360;2022-08-05T03:00:13;14.00;99.90
42617;DHT22;28250;52.320;0.360;2022-08-05T03:02:40;13.90;99.90
42617;DHT22;28250;52.320;0.360;2022-08-05T03:05:08;13.80;99.90
42617;DHT22;28250;52.320;0.360;2022-08-05T03:07:35;13.80;99.90
42617;DHT22;28250;52.320;0.360;2022-08-05T03:10:02;13.70;99.90
42617;DHT22;28250;52.320;0.360;2022-08-05T03:12:29;13.60;99.90
42617;DHT22;28250;52.320;0.360;2022-08-05T03:14:57;13.70;99.90
42617;DHT22;28250;52.320;0.360;2022-08-05T03:17:24;13.70;99.90
42617;DHT22;28250;52.320;0.360;2022-08-05T03:19:50;13.70;99.90
42617;DHT22;28250;52.320;0.360;2022-08-05T03:22:16;13.60;99.90
42617;DHT22;28250;52.320;0.360;2022-08-05T03:24:43;13.60;99.90
42617;DHT22;28250;52.320;0.360;2022-08-05T03:27:10;13.60;99.90
42617;DHT22;28250;52.320;0.360;2022-08-05T03:29:37;13.50;99.90
42617;DHT22;28250;52.320;0.360;2022-08-05T03:32:06;13.50;99.90
42617;DHT22;28250;52.320;0.360;2022-08-05T03:34:34;13.60;99.90
42617;DHT22;28250;52.320;0.360;2022-08-05T03:37:01;13.50;99.90
42617;DHT22;28250;52.320;0.360;2022-08-05T03:39:28;13.50;99.90
42617;DHT22;28250;52.320;0.360;2022-08-05T03:41:54;13.60;99.90
42617;DHT22;28250;52.320;0.360;2022-08-05T03:44:22;13.50;99.90
42617;DHT22;28250;52.320;0.360;2022-08-05T03:46:49;13.40;99.90
42617;DHT22;28250;52.320;0.360;2022-08-05T03:49:15;13.30;99.90
42617;DHT22;28250;52.320;0.360;2022-08-05T03:51:42;13.30;99.90
42617;DHT22;28250;52.320;0.360;2022-08-05T03:54:18;13.30;99.90
42617;DHT22;28250;52.320;0.360;2022-08-05T03:56:49;13.20;99.90
42617;DHT22;28250;52.320;0.360;2022-08-05T03:59:16;13.20;99.90
42617;DHT22;28250;52.320;0.360;2022-08-05T04:01:47;13.20;99.90
42617;DHT22;28250;52.320;0.360;2022-08-05T04:04:15;13.20;99.90
42617;DHT22;28250;52.320;0.360;2022-08-05T04:06:42;13.20;99.90
42617;DHT22;28250;52.320;0.360;2022-08-05T04:09:09;13.10;99.90
42617;DHT22;28250;52.320;0.360;2022-08-05T04:11:36;13.10;99.90
42617;DHT22;28250;52.320;0.360;2022-08-05T04:14:03;13.00;99.90
42617;DHT22;28250;52.320;0.360;2022-08-05T04:16:30;13.00;99.90
42617;DHT22;28250;52.320;0.360;2022-08-05T04:18:57;12.90;99.90
42617;DHT22;28250;52.320;0.360;2022-08-05T04:21:24;12.90;99.90
42617;DHT22;28250;52.320;0.360;2022-08-05T04:23:50;12.80;99.90
42617;DHT22;28250;52.320;0.360;2022-08-05T04:26:16;12.80;99.90
42617;DHT22;28250;52.320;0.360;2022-08-05T04:28:43;12.70;99.90
42617;DHT22;28250;52.320;0.360;2022-08-05T04:31:10;12.70;99.90
42617;DHT22;28250;52.320;0.360;2022-08-05T04:33:36;12.70;99.90
42617;DHT22;28250;52.320;0.360;2022-08-05T04:36:02;12.60;99.90
42617;DHT22;28250;52.320;0.360;2022-08-05T04:38:29;12.60;99.90
42617;DHT22;28250;52.320;0.360;2022-08-05T04:40:55;12.60;99.90
42617;DHT22;28250;52.320;0.360;2022-08-05T04:43:22;12.60;99.90
42617;DHT22;28250;52.320;0.360;2022-08-05T04:45:48;12.50;99.90
42617;DHT22;28250;52.320;0.360;2022-08-05T04:48:15;12.40;99.90
42617;DHT22;28250;52.320;0.360;2022-08-05T04:50:43;12.40;99.90
42617;DHT22;28250;52.320;0.360;2022-08-05T04:53:12;12.30;99.90
42617;DHT22;28250;52.320;0.360;2022-08-05T04:55:40;12.30;99.90
42617;DHT22;28250;52.320;0.360;2022-08-05T04:58:08;12.20;99.90
42617;DHT22;28250;52.320;0.360;2022-08-05T05:00:36;12.30;99.90
42617;DHT22;28250;52.320;0.360;2022-08-05T05:03:03;12.20;99.90
42617;DHT22;28250;52.320;0.360;2022-08-05T05:05:31;12.20;99.90
42617;DHT22;28250;52.320;0.360;2022-08-05T05:07:59;12.20;99.90
42617;DHT22;28250;52.320;0.360;2022-08-05T05:10:27;12.20;99.90
42617;DHT22;28250;52.320;0.360;2022-08-05T05:12:55;12.20;99.90
42617;DHT22;28250;52.320;0.360;2022-08-05T05:15:22;12.20;99.90
42617;DHT22;28250;52.320;0.360;2022-08-05T05:17:48;12.20;99.90
42617;DHT22;28250;52.320;0.360;2022-08-05T05:20:15;12.20;99.90
42617;DHT22;28250;52.320;0.360;2022-08-05T05:22:44;12.20;99.90
42617;DHT22;28250;52.320;0.360;2022-08-05T05:25:11;12.20;99.90
42617;DHT22;28250;52.320;0.360;2022-08-05T05:27:38;12.20;99.90
42617;DHT22;28250;52.320;0.360;2022-08-05T05:30:05;12.20;99.90
42617;DHT22;28250;52.320;0.360;2022-08-05T05:32:32;12.30;99.90
42617;DHT22;28250;52.320;0.360;2022-08-05T05:34:58;12.30;99.90
42617;DHT22;28250;52.320;0.360;2022-08-05T05:37:24;12.40;99.90
42617;DHT22;28250;52.320;0.360;2022-08-05T05:40:09;12.40;99.90
42617;DHT22;28250;52.320;0.360;2022-08-05T05:42:36;12.50;99.90
42617;DHT22;28250;52.320;0.360;2022-08-05T05:45:02;12.60;99.90
42617;DHT22;28250;52.320;0.360;2022-08-05T05:47:29;12.70;99.90
42617;DHT22;28250;52.320;0.360;2022-08-05T05:49:56;12.70;99.90
42617;DHT22;28250;52.320;0.360;2022-08-05T05:52:22;12.80;99.90
42617;DHT22;28250;52.320;0.360;2022-08-05T05:54:49;12.90;99.90
42617;DHT22;28250;52.320;0.360;2022-08-05T05:57:15;12.90;99.90
42617;DHT22;28250;52.320;0.360;2022-08-05T05:59:42;13.00;99.90
42617;DHT22;28250;52.320;0.360;2022-08-05T06:02:08;13.00;99.90
42617;DHT22;28250;52.320;0.360;2022-08-05T06:04:34;13.90;99.90
42617;DHT22;28250;52.320;0.360;2022-08-05T06:07:01;14.60;99.90
42617;DHT22;28250;52.320;0.360;2022-08-05T06:09:28;15.40;99.90
42617;DHT22;28250;52.320;0.360;2022-08-05T06:11:54;16.80;99.90
42617;DHT22;28250;52.320;0.360;2022-08-05T06:14:21;17.10;99.90
42617;DHT22;28250;52.320;0.360;2022-08-05T06:16:47;17.20;99.90
42617;DHT22;28250;52.320;0.360;2022-08-05T06:19:13;18.00;99.90
42617;DHT22;28250;52.320;0.360;2022-08-05T06:21:40;18.30;99.90
42617;DHT22;28250;52.320;0.360;2022-08-05T06:24:06;19.30;99.90
42617;DHT22;28250;52.320;0.360;2022-08-05T06:26:33;18.20;99.90
42617;DHT22;28250;52.320;0.360;2022-08-05T06:29:00;18.20;99.90
42617;DHT22;28250;52.320;0.360;2022-08-05T06:31:26;18.70;99.90
42617;DHT22;28250;52.320;0.360;2022-08-05T06:33:52;19.90;99.90
42617;DHT22;28250;52.320;0.360;2022-08-05T06:36:19;19.90;99.90
42617;DHT22;28250;52.320;0.360;2022-08-05T06:38:46;20.00;99.90
42617;DHT22;28250;52.320;0.360;2022-08-05T06:41:12;19.60;99.90
42617;DHT22;28250;52.320;0.360;2022-08-05T06:43:38;20.10;99.90
42617;DHT22;28250;52.320;0.360;2022-08-05T06:46:05;20.10;99.90
42617;DHT22;28250;52.320;0.360;2022-08-05T06:48:31;19.40;99.90
42617;DHT22;28250;52.320;0.360;2022-08-05T06:50:59;18.50;99.90
42617;DHT22;28250;52.320;0.360;2022-08-05T06:53:26;19.20;99.90
42617;DHT22;28250;52.320;0.360;2022-08-05T06:55:52;20.40;99.90
42617;DHT22;28250;52.320;0.360;2022-08-05T06:58:19;20.50;99.90
42617;DHT22;28250;52.320;0.360;2022-08-05T07:00:45;20.50;99.90
42617;DHT22;28250;52.320;0.360;2022-08-05T07:03:11;20.70;99.90
42617;DHT22;28250;52.320;0.360;2022-08-05T07:05:38;19.00;99.90
42617;DHT22;28250;52.320;0.360;2022-08-05T07:08:04;19.20;99.90
42617;DHT22;28250;52.320;0.360;2022-08-05T07:10:32;19.80;99.90
42617;DHT22;28250;52.320;0.360;2022-08-05T07:12:58;19.80;99.90
42617;DHT22;28250;52.320;0.360;2022-08-05T07:15:43;19.70;99.90
42617;DHT22;28250;52.320;0.360;2022-08-05T07:18:28;19.50;99.90
42617;DHT22;28250;52.320;0.360;2022-08-05T07:20:55;19.50;99.90
42617;DHT22;28250;52.320;0.360;2022-08-05T07:23:21;20.20;99.90
42617;DHT22;28250;52.320;0.360;2022-08-05T07:25:48;19.70;99.90
42617;DHT22;28250;52.320;0.360;2022-08-05T07:28:14;19.30;99.90
42617;DHT22;28250;52.320;0.360;2022-08-05T07:30:41;19.40;99.90
42617;DHT22;28250;52.320;0.360;2022-08-05T07:33:08;19.80;99.90
42617;DHT22;28250;52.320;0.360;2022-08-05T07:35:36;19.90;99.90
42617;DHT22;28250;52.320;0.360;2022-08-05T07:38:04;20.30;99.90
42617;DHT22;28250;52.320;0.360;2022-08-05T07:40:30;20.60;99.90
42617;DHT22;28250;52.320;0.360;2022-08-05T07:42:57;19.70;99.90
42617;DHT22;28250;52.320;0.360;2022-08-05T07:45:23;18.90;99.90
42617;DHT22;28250;52.320;0.360;2022-08-05T07:47:51;18.90;99.90
42617;DHT22;28250;52.320;0.360;2022-08-05T07:50:17;19.30;99.90
42617;DHT22;28250;52.320;0.360;2022-08-05T07:52:44;18.60;99.90
42617;DHT22;28250;52.320;0.360;2022-08-05T07:55:11;18.10;99.90
42617;DHT22;28250;52.320;0.360;2022-08-05T07:57:37;18.10;99.90
42617;DHT22;28250;52.320;0.360;2022-08-05T08:00:04;17.90;99.90
42617;DHT22;28250;52.320;0.360;2022-08-05T08:02:37;17.60;99.90
42617;DHT22;28250;52.320;0.360;2022-08-05T08:05:04;17.40;99.90
42617;DHT22;28250;52.320;0.360;2022-08-05T08:07:30;17.30;99.90
42617;DHT22;28250;52.320;0.360;2022-08-05T08:09:57;17.40;99.90
42617;DHT22;28250;52.320;0.360;2022-08-05T08:12:24;17.40;99.90
42617;DHT22;28250;52.320;0.360;2022-08-05T08:14:50;17.60;99.90
42617;DHT22;28250;52.320;0.360;2022-08-05T08:17:16;17.50;99.90
42617;DHT22;28250;52.320;0.360;2022-08-05T08:19:43;17.50;99.90
42617;DHT22;28250;52.320;0.360;2022-08-05T08:22:10;17.90;99.90
42617;DHT22;28250;52.320;0.360;2022-08-05T08:24:37;17.70;99.90
42617;DHT22;28250;52.320;0.360;2022-08-05T08:27:04;17.80;99.90
42617;DHT22;28250;52.320;0.360;2022-08-05T08:29:31;18.00;99.90
42617;DHT22;28250;52.320;0.360;2022-08-05T08:31:58;17.90;99.90
42617;DHT22;28250;52.320;0.360;2022-08-05T08:34:25;17.90;99.90
42617;DHT22;28250;52.320;0.360;2022-08-05T08:36:52;18.00;99.90
42617;DHT22;28250;52.320;0.360;2022-08-05T08:39:19;17.90;99.90
42617;DHT22;28250;52.320;0.360;2022-08-05T08:41:48;18.00;99.90
42617;DHT22;28250;52.320;0.360;2022-08-05T08:44:16;18.20;99.90
42617;DHT22;28250;52.320;0.360;2022-08-05T08:46:44;18.20;99.90
42617;DHT22;28250;52.320;0.360;2022-08-05T08:49:12;17.80;99.90
42617;DHT22;28250;52.320;0.360;2022-08-05T08:51:40;17.70;99.90
42617;DHT22;28250;52.320;0.360;2022-08-05T08:54:09;17.70;99.90
42617;DHT22;28250;52.320;0.360;2022-08-05T08:56:38;18.20;99.90
42617;DHT22;28250;52.320;0.360;2022-08-05T08:59:05;18.20;99.90
42617;DHT22;28250;52.320;0.360;2022-08-05T09:01:32;18.00;99.90
42617;DHT22;28250;52.320;0.360;2022-08-05T09:03:58;17.90;99.90
42617;DHT22;28250;52.320;0.360;2022-08-05T09:06:25;17.70;99.90
42617;DHT22;28250;52.320;0.360;2022-08-05T09:08:53;17.70;99.90
42617;DHT22;28250;52.320;0.360;2022-08-05T09:11:21;18.30;99.90
42617;DHT22;28250;52.320;0.360;2022-08-05T09:13:47;18.30;99.90
42617;DHT22;28250;52.320;0.360;2022-08-05T09:16:14;18.50;99.90
42617;DHT22;28250;52.320;0.360;2022-08-05T09:18:40;18.60;99.90
42617;DHT22;28250;52.320;0.360;2022-08-05T09:21:09;18.70;99.90
42617;DHT22;28250;52.320;0.360;2022-08-05T09:23:35;19.00;99.90
42617;DHT22;28250;52.320;0.360;2022-08-05T09:26:08;18.50;99.90
42617;DHT22;28250;52.320;0.360;2022-08-05T09:28:38;18.70;99.90
42617;DHT22;28250;52.320;0.360;2022-08-05T09:31:06;18.80;99.90
42617;DHT22;28250;52.320;0.360;2022-08-05T09:39:16;19.10;99.90
42617;DHT22;28250;52.320;0.360;2022-08-05T09:44:32;19.20;99.90
42617;DHT22;28250;52.320;0.360;2022-08-05T09:47:12;19.20;99.90
42617;DHT22;28250;52.320;0.360;2022-08-05T09:49:40;19.90;99.90
42617;DHT22;28250;52.320;0.360;2022-08-05T09:54:55;19.50;99.90
42617;DHT22;28250;52.320;0.360;2022-08-05T09:57:30;19.20;99.90
42617;DHT22;28250;52.320;0.360;2022-08-05T09:59:59;19.70;99.90
42617;DHT22;28250;52.320;0.360;2022-08-05T10:02:33;20.10;99.90
42617;DHT22;28250;52.320;0.360;2022-08-05T10:05:02;20.20;99.80
42617;DHT22;28250;52.320;0.360;2022-08-05T10:10:16;20.30;99.20
42617;DHT22;28250;52.320;0.360;2022-08-05T10:12:47;20.30;98.60
42617;DHT22;28250;52.320;0.360;2022-08-05T10:15:15;20.20;99.20
42617;DHT22;28250;52.320;0.360;2022-08-05T10:17:42;20.40;99.40
42617;DHT22;28250;52.320;0.360;2022-08-05T10:20:08;20.50;99.10
42617;DHT22;28250;52.320;0.360;2022-08-05T10:22:38;20.90;98.70
42617;DHT22;28250;52.320;0.360;2022-08-05T10:25:05;21.80;97.90
42617;DHT22;28250;52.320;0.360;2022-08-05T10:27:34;21.50;98.00
42617;DHT22;28250;52.320;0.360;2022-08-05T10:30:01;21.40;98.50
42617;DHT22;28250;52.320;0.360;2022-08-05T10:32:27;21.60;99.10
42617;DHT22;28250;52.320;0.360;2022-08-05T10:34:54;21.30;98.10
42617;DHT22;28250;52.320;0.360;2022-08-05T10:37:23;21.40;97.70
42617;DHT22;28250;52.320;0.360;2022-08-05T10:39:49;21.40;97.80
42617;DHT22;28250;52.320;0.360;2022-08-05T10:42:21;21.70;97.60
42617;DHT22;28250;52.320;0.360;2022-08-05T10:44:49;20.80;99.00
42617;DHT22;28250;52.320;0.360;2022-08-05T10:47:16;21.40;97.50
42617;DHT22;28250;52.320;0.360;2022-08-05T10:52:39;21.90;98.00
42617;DHT22;28250;52.320;0.360;2022-08-05T10:55:07;21.80;97.50
42617;DHT22;28250;52.320;0.360;2022-08-05T10:57:35;21.60;98.00
42617;DHT22;28250;52.320;0.360;2022-08-05T11:02:34;20.50;99.00
42617;DHT22;28250;52.320;0.360;2022-08-05T11:05:02;20.60;99.40
42617;DHT22;28250;52.320;0.360;2022-08-05T11:07:30;21.30;98.50
42617;DHT22;28250;52.320;0.360;2022-08-05T11:09:57;22.20;98.10
42617;DHT22;28250;52.320;0.360;2022-08-05T11:17:41;23.00;98.20
42617;DHT22;28250;52.320;0.360;2022-08-05T11:35:57;21.50;98.20
42617;DHT22;28250;52.320;0.360;2022-08-05T11:46:27;22.20;97.80
42617;DHT22;28250;52.320;0.360;2022-08-05T11:48:54;23.20;97.30
42617;DHT22;28250;52.320;0.360;2022-08-05T11:51:21;22.40;96.80
42617;DHT22;28250;52.320;0.360;2022-08-05T11:53:48;21.10;97.70
42617;DHT22;28250;52.320;0.360;2022-08-05T11:56:15;20.40;98.80
42617;DHT22;28250;52.320;0.360;2022-08-05T11:58:42;20.00;99.50
42617;DHT22;28250;52.320;0.360;2022-08-05T12:01:13;21.60;98.60
42617;DHT22;28250;52.320;0.360;2022-08-05T12:03:41;23.00;99.10
42617;DHT22;28250;52.320;0.360;2022-08-05T12:06:12;22.40;97.10
42617;DHT22;28250;52.320;0.360;2022-08-05T12:08:41;21.80;98.20
42617;DHT22;28250;52.320;0.360;2022-08-05T12:11:10;22.20;97.60
42617;DHT22;28250;52.320;0.360;2022-08-05T12:13:37;23.10;98.00
42617;DHT22;28250;52.320;0.360;2022-08-05T12:16:05;23.30;96.90
42617;DHT22;28250;52.320;0.360;2022-08-05T12:18:33;23.90;97.00
42617;DHT22;28250;52.320;0.360;2022-08-05T12:26:17;23.40;99.10
42617;DHT22;28250;52.320;0.360;2022-08-05T12:28:44;22.50;96.90
42617;DHT22;28250;52.320;0.360;2022-08-05T12:31:10;21.20;96.90
42617;DHT22;28250;52.320;0.360;2022-08-05T12:33:37;20.80;97.70
42617;DHT22;28250;52.320;0.360;2022-08-05T12:36:03;22.00;97.90
42617;DHT22;28250;52.320;0.360;2022-08-05T12:38:31;23.20;95.70
42617;DHT22;28250;52.320;0.360;2022-08-05T12:40:58;23.20;94.70
42617;DHT22;28250;52.320;0.360;2022-08-05T12:43:24;23.30;94.70
42617;DHT22;28250;52.320;0.360;2022-08-05T12:45:52;24.50;95.80
42617;DHT22;28250;52.320;0.360;2022-08-05T12:48:20;24.40;93.80
42617;DHT22;28250;52.320;0.360;2022-08-05T12:53:43;24.50;94.50
42617;DHT22;28250;52.320;0.360;2022-08-05T12:56:17;24.90;93.40
42617;DHT22;28250;52.320;0.360;2022-08-05T13:01:42;22.70;94.90
42617;DHT22;28250;52.320;0.360;2022-08-05T13:04:12;23.10;96.80
42617;DHT22;28250;52.320;0.360;2022-08-05T13:06:40;22.70;94.70
42617;DHT22;28250;52.320;0.360;2022-08-05T13:09:08;22.50;94.40
42617;DHT22;28250;52.320;0.360;2022-08-05T13:11:39;21.80;94.60
42617;DHT22;28250;52.320;0.360;2022-08-05T13:14:10;21.60;95.20
42617;DHT22;28250;52.320;0.360;2022-08-05T13:16:44;22.30;94.80
42617;DHT22;28250;52.320;0.360;2022-08-05T13:19:14;22.30;95.30
42617;DHT22;28250;52.320;0.360;2022-08-05T13:21:40;21.90;95.60
42617;DHT22;28250;52.320;0.360;2022-08-05T13:24:06;21.60;95.70
42617;DHT22;28250;52.320;0.360;2022-08-05T13:26:35;21.40;96.10
42617;DHT22;28250;52.320;0.360;2022-08-05T13:29:01;20.90;96.20
42617;DHT22;28250;52.320;0.360;2022-08-05T13:31:28;21.10;96.30
42617;DHT22;28250;52.320;0.360;2022-08-05T13:33:54;21.30;95.80
42617;DHT22;28250;52.320;0.360;2022-08-05T13:36:21;21.10;96.70
42617;DHT22;28250;52.320;0.360;2022-08-05T13:38:47;21.50;96.20
42617;DHT22;28250;52.320;0.360;2022-08-05T13:41:13;21.90;95.80
42617;DHT22;28250;52.320;0.360;2022-08-05T13:43:41;22.30;95.80
42617;DHT22;28250;52.320;0.360;2022-08-05T13:46:09;22.00;96.10
42617;DHT22;28250;52.320;0.360;2022-08-05T13:48:37;22.90;95.10
42617;DHT22;28250;52.320;0.360;2022-08-05T13:51:07;23.30;94.30
42617;DHT22;28250;52.320;0.360;2022-08-05T13:53:34;22.50;94.80
42617;DHT22;28250;52.320;0.360;2022-08-05T13:56:01;22.60;95.20
42617;DHT22;28250;52.320;0.360;2022-08-05T13:58:28;23.60;94.70
42617;DHT22;28250;52.320;0.360;2022-08-05T14:00:55;23.90;94.30
42617;DHT22;28250;52.320;0.360;2022-08-05T14:03:21;23.90;93.20
42617;DHT22;28250;52.320;0.360;2022-08-05T14:05:48;23.20;93.80
42617;DHT22;28250;52.320;0.360;2022-08-05T14:08:14;23.90;94.10
42617;DHT22;28250;52.320;0.360;2022-08-05T14:10:41;23.40;94.20
42617;DHT22;28250;52.320;0.360;2022-08-05T14:13:07;23.10;94.60
42617;DHT22;28250;52.320;0.360;2022-08-05T14:15:34;22.70;95.00
42617;DHT22;28250;52.320;0.360;2022-08-05T14:18:01;23.80;94.60
42617;DHT22;28250;52.320;0.360;2022-08-05T14:20:28;24.20;93.70
42617;DHT22;28250;52.320;0.360;2022-08-05T14:22:56;23.30;93.90
42617;DHT22;28250;52.320;0.360;2022-08-05T14:25:23;23.40;93.10
42617;DHT22;28250;52.320;0.360;2022-08-05T14:27:49;23.10;94.10
42617;DHT22;28250;52.320;0.360;2022-08-05T14:30:16;23.20;94.70
42617;DHT22;28250;52.320;0.360;2022-08-05T14:32:43;23.40;93.40
42617;DHT22;28250;52.320;0.360;2022-08-05T14:35:10;22.90;93.10
42617;DHT22;28250;52.320;0.360;2022-08-05T14:37:37;23.30;94.20
42617;DHT22;28250;52.320;0.360;2022-08-05T14:40:03;22.90;93.70
42617;DHT22;28250;52.320;0.360;2022-08-05T14:42:30;23.00;93.50
42617;DHT22;28250;52.320;0.360;2022-08-05T14:44:57;23.80;93.20
42617;DHT22;28250;52.320;0.360;2022-08-05T14:47:23;23.00;93.30
42617;DHT22;28250;52.320;0.360;2022-08-05T14:49:50;22.90;93.30
42617;DHT22;28250;52.320;0.360;2022-08-05T14:52:16;23.10;93.90
42617;DHT22;28250;52.320;0.360;2022-08-05T14:54:42;23.50;92.90
42617;DHT22;28250;52.320;0.360;2022-08-05T14:57:09;23.80;92.80
42617;DHT22;28250;52.320;0.360;2022-08-05T14:59:35;23.80;92.60
42617;DHT22;28250;52.320;0.360;2022-08-05T15:02:02;24.20;92.70
42617;DHT22;28250;52.320;0.360;2022-08-05T15:04:29;23.70;93.20
42617;DHT22;28250;52.320;0.360;2022-08-05T15:06:56;23.20;92.80
42617;DHT22;28250;52.320;0.360;2022-08-05T15:09:22;23.40;93.10
42617;DHT22;28250;52.320;0.360;2022-08-05T15:11:48;23.70;93.20
42617;DHT22;28250;52.320;0.360;2022-08-05T15:14:15;22.90;93.60
42617;DHT22;28250;52.320;0.360;2022-08-05T15:16:41;23.10;94.50
42617;DHT22;28250;52.320;0.360;2022-08-05T15:19:08;23.40;93.70
42617;DHT22;28250;52.320;0.360;2022-08-05T15:21:34;23.80;92.90
42617;DHT22;28250;52.320;0.360;2022-08-05T15:24:00;23.40;92.80
42617;DHT22;28250;52.320;0.360;2022-08-05T15:26:27;23.40;92.80
42617;DHT22;28250;52.320;0.360;2022-08-05T15:28:53;23.80;92.10
42617;DHT22;28250;52.320;0.360;2022-08-05T15:31:19;23.60;91.80
42617;DHT22;28250;52.320;0.360;2022-08-05T15:33:46;23.80;91.90
42617;DHT22;28250;52.320;0.360;2022-08-05T15:36:12;24.20;91.70
42617;DHT22;28250;52.320;0.360;2022-08-05T15:38:39;23.80;91.20
42617;DHT22;28250;52.320;0.360;2022-08-05T15:41:05;23.80;91.00
42617;DHT22;28250;52.320;0.360;2022-08-05T15:43:31;24.20;90.80
42617;DHT22;28250;52.320;0.360;2022-08-05T15:45:58;23.90;90.70
42617;DHT22;28250;52.320;0.360;2022-08-05T15:48:24;24.00;91.00
42617;DHT22;28250;52.320;0.360;2022-08-05T15:50:51;24.00;91.80
42617;DHT22;28250;52.320;0.360;2022-08-05T15:53:17;23.50;91.80
42617;DHT22;28250;52.320;0.360;2022-08-05T15:55:44;23.80;92.00
42617;DHT22;28250;52.320;0.360;2022-08-05T15:58:10;23.60;92.60
42617;DHT22;28250;52.320;0.360;2022-08-05T16:00:36;23.30;94.10
42617;DHT22;28250;52.320;0.360;2022-08-05T16:03:03;22.90;92.60
42617;DHT22;28250;52.320;0.360;2022-08-05T16:05:29;22.80;92.70
42617;DHT22;28250;52.320;0.360;2022-08-05T16:07:56;22.90;92.60
42617;DHT22;28250;52.320;0.360;2022-08-05T16:10:22;23.10;92.60
42617;DHT22;28250;52.320;0.360;2022-08-05T16:12:49;22.30;94.10
42617;DHT22;28250;52.320;0.360;2022-08-05T16:15:16;22.70;94.40
42617;DHT22;28250;52.320;0.360;2022-08-05T16:17:43;22.60;94.70
42617;DHT22;28250;52.320;0.360;2022-08-05T16:20:09;22.60;94.40
42617;DHT22;28250;52.320;0.360;2022-08-05T16:22:36;23.20;94.50
42617;DHT22;28250;52.320;0.360;2022-08-05T16:25:02;23.80;94.00
42617;DHT22;28250;52.320;0.360;2022-08-05T16:27:29;23.30;93.80
42617;DHT22;28250;52.320;0.360;2022-08-05T16:29:55;23.70;93.60
42617;DHT22;28250;52.320;0.360;2022-08-05T16:32:22;22.80;93.80
42617;DHT22;28250;52.320;0.360;2022-08-05T16:34:48;23.60;94.10
42617;DHT22;28250;52.320;0.360;2022-08-05T16:37:14;22.80;93.70